Time;durP1;ratioP1;P1;durP2;ratioP2;P2;SDS_P1;SDS_P2;PMS_P1;PMS_P2;Temp;Humidity;BMP_temperature;BMP_pressure;BME280_temperature;BME280_humidity;BME280_pressure;Samples;Min_cycle;Max_cycle;Signal;HPM_P1;HPM_P2
2021/05/05 00:00:48;;;;;;;1.95;1.20;;;11.50;99.90;;;;;;5097900;28;20201;-71
2021/05/05 00:03:14;;;;;;;1.50;1.33;;;11.50;99.90;;;;;;5092963;28;20197;-71
2021/05/05 00:05:41;;;;;;;1.92;1.10;;;11.40;99.90;;;;;;5100856;28;20193;-71
2021/05/05 00:08:07;;;;;;;1.30;0.93;;;11.50;99.90;;;;;;5093703;28;20193;-71
2021/05/05 00:10:33;;;;;;;1.67;1.45;;;11.50;99.90;;;;;;5090417;28;20311;-70
2021/05/05 00:12:59;;;;;;;2.65;1.30;;;11.50;99.90;;;;;;5090676;28;20201;-71
2021/05/05 00:15:26;;;;;;;2.03;1.30;;;11.50;99.90;;;;;;5101405;28;20209;-71
2021/05/05 00:17:53;;;;;;;1.65;1.23;;;11.50;99.90;;;;;;5110746;28;20553;-71
2021/05/05 00:20:21;;;;;;;1.33;1.15;;;11.50;99.90;;;;;;5097830;28;20189;-71
2021/05/05 00:22:47;;;;;;;1.70;1.23;;;11.40;99.90;;;;;;5104189;28;20232;-71
2021/05/05 00:25:14;;;;;;;1.42;1.15;;;11.40;99.90;;;;;;5108001;28;20225;-70
2021/05/05 00:27:40;;;;;;;1.92;1.10;;;11.40;99.90;;;;;;5096655;28;20200;-71
2021/05/05 00:30:09;;;;;;;2.42;1.30;;;11.40;99.90;;;;;;5093018;28;20221;-71
2021/05/05 00:32:36;;;;;;;1.80;1.23;;;11.40;99.90;;;;;;5104321;28;20644;-71
2021/05/05 00:35:03;;;;;;;2.42;1.42;;;11.30;99.90;;;;;;5101847;28;20227;-71
2021/05/05 00:37:29;;;;;;;2.13;1.38;;;11.30;99.90;;;;;;5091061;28;20249;-70
2021/05/05 00:39:56;;;;;;;2.90;1.20;;;11.40;99.90;;;;;;5096262;28;20201;-71
2021/05/05 00:42:23;;;;;;;1.20;0.95;;;11.30;99.90;;;;;;5093138;28;20197;-71
2021/05/05 00:44:49;;;;;;;2.00;1.63;;;11.30;99.90;;;;;;5097724;28;20648;-71
2021/05/05 00:47:16;;;;;;;2.67;1.92;;;11.30;99.90;;;;;;5098701;28;20211;-70
2021/05/05 00:49:42;;;;;;;2.63;1.55;;;11.20;99.90;;;;;;5098288;28;20209;-71
2021/05/05 00:52:09;;;;;;;1.40;1.00;;;11.30;99.90;;;;;;5101467;28;20629;-71
2021/05/05 00:54:35;;;;;;;3.47;1.65;;;11.30;99.90;;;;;;5098933;28;20208;-72
2021/05/05 00:57:02;;;;;;;2.38;1.50;;;11.20;99.90;;;;;;5098843;28;20192;-71
2021/05/05 00:59:28;;;;;;;1.98;1.60;;;11.20;99.90;;;;;;5100672;28;20638;-71
2021/05/05 01:01:54;;;;;;;1.70;1.27;;;11.20;99.90;;;;;;5096141;28;20201;-71
2021/05/05 01:04:20;;;;;;;1.88;1.55;;;11.20;99.90;;;;;;5094263;28;20202;-71
2021/05/05 01:06:47;;;;;;;2.30;1.40;;;11.10;99.90;;;;;;5090901;28;20293;-70
2021/05/05 01:09:14;;;;;;;2.40;1.40;;;11.20;99.90;;;;;;5095531;28;20205;-70
2021/05/05 01:11:41;;;;;;;2.00;1.45;;;11.20;99.90;;;;;;5091288;28;20637;-70
2021/05/05 01:14:08;;;;;;;2.65;1.20;;;11.20;99.90;;;;;;5111046;28;20644;-70
2021/05/05 01:16:34;;;;;;;3.45;1.40;;;11.10;99.90;;;;;;5100993;28;20201;-70
2021/05/05 01:19:00;;;;;;;2.20;1.42;;;11.20;99.90;;;;;;5104602;28;20224;-70
2021/05/05 01:21:27;;;;;;;2.00;1.60;;;11.20;99.90;;;;;;5097752;28;20209;-71
2021/05/05 01:23:53;;;;;;;4.47;1.67;;;11.20;99.90;;;;;;5096981;28;20207;-71
2021/05/05 01:26:20;;;;;;;1.85;1.30;;;11.10;99.90;;;;;;5097883;28;20589;-71
2021/05/05 01:28:47;;;;;;;2.67;1.50;;;11.10;99.90;;;;;;5103758;28;20195;-71
2021/05/05 01:31:15;;;;;;;2.17;1.52;;;11.10;99.90;;;;;;5104093;28;20229;-71
2021/05/05 01:33:41;;;;;;;2.42;1.30;;;11.20;99.90;;;;;;5091685;28;20193;-71
2021/05/05 01:36:09;;;;;;;1.40;1.20;;;11.20;99.90;;;;;;5100109;28;20198;-71
2021/05/05 01:38:36;;;;;;;1.95;1.27;;;11.20;99.90;;;;;;5092098;28;20712;-71
2021/05/05 01:41:03;;;;;;;3.00;1.42;;;11.10;99.90;;;;;;5089699;28;20212;-70
2021/05/05 01:43:30;;;;;;;1.90;1.52;;;11.10;99.90;;;;;;5101639;28;20254;-71
2021/05/05 01:45:57;;;;;;;1.98;1.50;;;11.10;99.90;;;;;;5103369;28;20209;-72
2021/05/05 01:48:23;;;;;;;1.65;1.55;;;11.10;99.90;;;;;;5099753;28;20204;-72
2021/05/05 01:50:49;;;;;;;1.85;1.48;;;11.10;99.90;;;;;;5109847;28;20216;-72
2021/05/05 01:53:16;;;;;;;2.60;1.90;;;11.10;99.90;;;;;;5108149;28;20212;-72
2021/05/05 01:55:44;;;;;;;2.35;2.15;;;11.10;99.90;;;;;;5093537;28;20912;-71
2021/05/05 01:58:10;;;;;;;3.70;1.88;;;11.00;99.90;;;;;;5100653;28;20204;-71
2021/05/05 02:00:37;;;;;;;2.35;1.42;;;11.10;99.90;;;;;;5097455;28;20201;-72
2021/05/05 02:03:04;;;;;;;3.88;1.50;;;11.00;99.90;;;;;;5110660;28;20208;-72
2021/05/05 02:05:30;;;;;;;3.95;1.65;;;11.10;99.90;;;;;;5103552;28;20228;-72
2021/05/05 02:07:56;;;;;;;3.38;1.60;;;11.10;99.90;;;;;;5094976;28;20809;-71
2021/05/05 02:10:23;;;;;;;2.17;1.75;;;11.10;99.90;;;;;;5098324;28;20470;-71
2021/05/05 02:12:50;;;;;;;1.52;1.23;;;11.10;99.90;;;;;;5092451;28;20240;-71
2021/05/05 02:15:19;;;;;;;4.55;1.50;;;11.10;99.90;;;;;;5104053;28;20208;-71
2021/05/05 02:17:45;;;;;;;2.78;1.38;;;11.00;99.90;;;;;;5109063;28;20208;-71
2021/05/05 02:20:13;;;;;;;2.00;1.40;;;11.00;99.90;;;;;;5103304;28;20205;-72
2021/05/05 02:22:39;;;;;;;3.90;1.38;;;11.00;99.90;;;;;;5093120;28;20217;-71
2021/05/05 02:25:07;;;;;;;1.52;1.23;;;11.00;99.90;;;;;;5093787;28;20229;-71
2021/05/05 02:27:34;;;;;;;1.80;1.13;;;11.10;99.90;;;;;;5112707;28;20209;-71
2021/05/05 02:30:01;;;;;;;1.77;1.10;;;11.00;99.90;;;;;;5093708;28;20213;-71
2021/05/05 02:32:27;;;;;;;1.23;1.02;;;11.00;99.90;;;;;;5110773;28;20287;-70
2021/05/05 02:34:55;;;;;;;2.38;1.23;;;11.00;99.90;;;;;;5108931;28;20196;-70
2021/05/05 02:37:22;;;;;;;1.45;1.25;;;11.00;99.90;;;;;;5094553;28;20814;-70
2021/05/05 02:39:48;;;;;;;1.20;1.00;;;11.00;99.90;;;;;;5092902;28;20263;-71
2021/05/05 02:42:16;;;;;;;1.10;0.90;;;11.00;99.90;;;;;;5093646;28;20519;-71
2021/05/05 02:44:44;;;;;;;1.67;1.20;;;11.00;99.90;;;;;;5100120;28;20201;-71
2021/05/05 02:47:13;;;;;;;1.50;1.10;;;11.00;99.90;;;;;;5098024;28;20227;-71
2021/05/05 02:49:39;;;;;;;2.75;1.15;;;11.00;99.90;;;;;;5093309;28;20213;-71
2021/05/05 02:52:05;;;;;;;1.85;1.30;;;11.00;99.90;;;;;;5099189;28;20212;-71
2021/05/05 02:54:32;;;;;;;1.55;1.30;;;11.00;99.90;;;;;;5110773;28;20208;-71
2021/05/05 02:56:59;;;;;;;1.58;1.30;;;10.90;99.90;;;;;;5094797;28;20213;-71
2021/05/05 02:59:26;;;;;;;1.42;1.17;;;10.90;99.90;;;;;;5111287;28;20204;-71
2021/05/05 03:01:53;;;;;;;2.28;1.30;;;11.00;99.90;;;;;;5111412;28;20208;-71
2021/05/05 03:04:20;;;;;;;2.75;1.33;;;11.00;99.90;;;;;;5105786;27;20200;-71
2021/05/05 03:06:46;;;;;;;2.17;1.65;;;11.00;99.90;;;;;;5093778;28;20519;-71
2021/05/05 03:09:13;;;;;;;2.90;1.52;;;11.00;99.90;;;;;;5093137;28;20201;-71
2021/05/05 03:11:39;;;;;;;1.92;1.48;;;11.00;99.90;;;;;;5102385;28;20197;-71
2021/05/05 03:14:05;;;;;;;1.83;1.42;;;10.90;99.90;;;;;;5095813;28;20247;-71
2021/05/05 03:16:32;;;;;;;2.30;1.85;;;10.90;99.90;;;;;;5092115;28;20542;-71
2021/05/05 03:18:58;;;;;;;1.50;1.40;;;10.90;99.90;;;;;;5095189;28;20201;-71
2021/05/05 03:21:25;;;;;;;2.33;1.80;;;10.90;99.90;;;;;;5101222;28;20243;-71
2021/05/05 03:23:51;;;;;;;2.35;1.85;;;10.90;99.90;;;;;;5093107;28;20209;-71
2021/05/05 03:26:17;;;;;;;5.20;1.80;;;10.90;99.90;;;;;;5103144;28;20228;-71
2021/05/05 03:28:44;;;;;;;1.83;1.60;;;10.80;99.90;;;;;;5106641;28;20189;-71
2021/05/05 03:31:10;;;;;;;2.40;1.90;;;10.80;99.90;;;;;;5109648;28;20208;-71
2021/05/05 03:33:36;;;;;;;3.35;1.50;;;10.80;99.90;;;;;;5112970;28;20232;-70
2021/05/05 03:36:03;;;;;;;2.30;2.05;;;10.80;99.90;;;;;;5104084;28;20197;-70
2021/05/05 03:38:30;;;;;;;2.33;1.83;;;10.80;99.90;;;;;;5100088;28;20198;-70
2021/05/05 03:40:56;;;;;;;2.97;2.00;;;10.80;99.90;;;;;;5092741;28;20205;-70
2021/05/05 03:43:22;;;;;;;2.08;1.88;;;10.80;99.90;;;;;;5103737;28;20257;-71
2021/05/05 03:45:49;;;;;;;3.47;2.28;;;10.80;99.90;;;;;;5108619;28;20193;-71
2021/05/05 03:48:15;;;;;;;2.10;1.95;;;10.80;99.90;;;;;;5095116;28;20698;-71
2021/05/05 03:50:42;;;;;;;2.13;1.92;;;10.80;99.90;;;;;;5091993;28;20206;-71
2021/05/05 03:53:09;;;;;;;3.25;2.25;;;10.80;99.90;;;;;;5090768;28;20200;-72
2021/05/05 03:55:36;;;;;;;2.15;1.80;;;10.70;99.90;;;;;;5098916;28;20242;-72
2021/05/05 03:58:02;;;;;;;3.53;2.63;;;10.70;99.90;;;;;;5104055;28;20196;-72
2021/05/05 04:00:28;;;;;;;2.47;1.70;;;10.80;99.90;;;;;;5095779;28;20194;-72
2021/05/05 04:02:54;;;;;;;2.08;1.88;;;10.80;99.90;;;;;;5109190;28;20258;-72
2021/05/05 04:05:21;;;;;;;2.00;1.60;;;10.80;99.90;;;;;;5109262;28;20221;-72
2021/05/05 04:07:47;;;;;;;1.50;1.40;;;10.70;99.90;;;;;;5111820;28;20220;-72
2021/05/05 04:10:13;;;;;;;2.60;2.40;;;10.80;99.90;;;;;;5090137;28;20220;-72
2021/05/05 04:12:41;;;;;;;1.75;1.65;;;10.70;99.90;;;;;;5096253;28;20544;-72
2021/05/05 04:15:08;;;;;;;4.07;1.60;;;10.80;99.90;;;;;;5111244;28;20277;-72
2021/05/05 04:17:34;;;;;;;1.90;1.33;;;10.80;99.90;;;;;;5110179;28;20193;-72
2021/05/05 04:20:01;;;;;;;3.13;1.75;;;10.80;99.90;;;;;;5096944;28;20198;-72
2021/05/05 04:22:28;;;;;;;2.00;1.70;;;10.70;99.90;;;;;;5094094;28;20216;-72
2021/05/05 04:24:54;;;;;;;2.25;1.60;;;10.70;99.90;;;;;;5106870;28;20228;-71
2021/05/05 04:27:21;;;;;;;2.13;1.90;;;10.70;99.90;;;;;;5102709;28;20208;-71
2021/05/05 04:29:48;;;;;;;2.05;1.85;;;10.70;99.90;;;;;;5097035;28;20655;-70
2021/05/05 04:32:15;;;;;;;2.50;1.33;;;10.70;99.90;;;;;;5091358;28;20201;-71
2021/05/05 04:34:42;;;;;;;2.70;1.65;;;10.70;99.90;;;;;;5096305;28;20197;-71
2021/05/05 04:37:08;;;;;;;2.85;1.50;;;10.70;99.90;;;;;;5098693;28;20212;-71
2021/05/05 04:39:35;;;;;;;2.15;1.70;;;10.60;99.90;;;;;;5091007;28;20197;-71
2021/05/05 04:42:01;;;;;;;2.25;1.90;;;10.70;99.90;;;;;;5096888;28;20197;-71
2021/05/05 04:44:27;;;;;;;2.22;1.75;;;10.60;99.90;;;;;;5108791;28;20208;-71
2021/05/05 04:46:54;;;;;;;2.50;1.88;;;10.60;99.90;;;;;;5095103;28;20648;-70
2021/05/05 04:49:20;;;;;;;3.45;1.92;;;10.60;99.90;;;;;;5089675;28;20194;-70
2021/05/05 04:51:46;;;;;;;3.10;1.80;;;10.60;99.90;;;;;;5090892;28;20208;-70
2021/05/05 04:54:14;;;;;;;3.85;2.20;;;10.60;99.90;;;;;;5091358;28;20522;-71
2021/05/05 04:56:40;;;;;;;1.65;1.52;;;10.60;99.90;;;;;;5089458;28;20197;-71
2021/05/05 04:59:06;;;;;;;2.05;1.85;;;10.60;99.90;;;;;;5105208;28;20205;-71
2021/05/05 05:01:33;;;;;;;2.67;1.90;;;10.60;99.90;;;;;;5099532;28;20193;-71
2021/05/05 05:04:00;;;;;;;2.65;1.52;;;10.60;99.90;;;;;;5093428;28;20197;-71
2021/05/05 05:06:26;;;;;;;1.73;1.30;;;10.60;99.90;;;;;;5111379;28;20204;-71
2021/05/05 05:08:52;;;;;;;2.03;1.83;;;10.60;99.90;;;;;;5097557;28;20198;-71
2021/05/05 05:11:18;;;;;;;3.05;1.67;;;10.60;99.90;;;;;;5100171;28;20220;-71
2021/05/05 05:13:44;;;;;;;1.60;1.40;;;10.60;99.90;;;;;;5090314;28;20673;-71
2021/05/05 05:16:11;;;;;;;1.92;1.50;;;10.60;99.90;;;;;;5100666;28;20197;-71
2021/05/05 05:18:37;;;;;;;2.63;1.30;;;10.60;99.90;;;;;;5105253;28;20201;-71
2021/05/05 05:21:05;;;;;;;1.70;1.60;;;10.60;99.90;;;;;;5099489;28;20194;-71
2021/05/05 05:23:31;;;;;;;1.60;1.48;;;10.60;99.90;;;;;;5090547;28;20191;-71
2021/05/05 05:25:58;;;;;;;2.83;1.58;;;10.60;99.90;;;;;;5094739;28;20736;-70
2021/05/05 05:28:24;;;;;;;1.70;1.27;;;10.70;99.90;;;;;;5095608;28;20251;-71
2021/05/05 05:30:51;;;;;;;4.70;1.30;;;10.60;99.90;;;;;;5093412;28;20217;-71
2021/05/05 05:33:17;;;;;;;1.60;1.25;;;10.60;99.90;;;;;;5094534;28;20204;-71
2021/05/05 05:35:43;;;;;;;3.60;1.48;;;10.60;99.90;;;;;;5090431;28;20251;-71
2021/05/05 05:38:10;;;;;;;3.10;1.30;;;10.60;99.90;;;;;;5096722;28;20220;-71
2021/05/05 05:40:37;;;;;;;2.00;1.50;;;10.60;99.90;;;;;;5097505;28;20196;-70
2021/05/05 05:43:03;;;;;;;1.67;1.30;;;10.60;99.90;;;;;;5110803;28;20197;-71
2021/05/05 05:45:29;;;;;;;3.08;1.70;;;10.60;99.90;;;;;;5100348;28;20195;-70
2021/05/05 05:47:56;;;;;;;2.28;1.92;;;10.60;99.90;;;;;;5093688;28;20209;-70
2021/05/05 05:50:22;;;;;;;2.40;2.20;;;10.60;99.90;;;;;;5103977;28;20664;-71
2021/05/05 05:52:48;;;;;;;2.40;1.70;;;10.70;99.90;;;;;;5102828;28;20189;-70
2021/05/05 05:55:18;;;;;;;2.20;2.00;;;10.70;99.90;;;;;;5094161;28;20205;-70
2021/05/05 05:57:45;;;;;;;1.85;1.75;;;10.70;99.90;;;;;;5107181;28;20197;-70
2021/05/05 06:00:14;;;;;;;2.08;1.88;;;10.70;99.90;;;;;;5104553;28;20198;-70
2021/05/05 06:02:40;;;;;;;2.25;2.00;;;10.70;99.90;;;;;;5103670;27;20197;-70
2021/05/05 06:05:07;;;;;;;4.70;2.35;;;10.70;99.90;;;;;;5107472;28;20212;-70
2021/05/05 06:07:33;;;;;;;6.18;2.50;;;10.70;99.90;;;;;;5096674;28;20196;-70
2021/05/05 06:09:59;;;;;;;2.22;2.03;;;10.70;99.90;;;;;;5099536;28;20267;-70
2021/05/05 06:12:26;;;;;;;2.80;2.15;;;10.70;99.90;;;;;;5092988;28;20193;-70
2021/05/05 06:14:54;;;;;;;2.35;2.15;;;10.70;99.90;;;;;;5110578;28;20252;-70
2021/05/05 06:17:21;;;;;;;3.63;2.67;;;10.60;99.90;;;;;;5107582;27;20286;-69
2021/05/05 06:19:47;;;;;;;4.53;1.88;;;10.60;99.90;;;;;;5093441;28;20201;-71
2021/05/05 06:22:13;;;;;;;2.30;2.10;;;10.60;99.90;;;;;;5102499;28;20185;-70
2021/05/05 06:24:39;;;;;;;2.90;2.67;;;10.60;99.90;;;;;;5092098;28;20564;-70
2021/05/05 06:27:06;;;;;;;3.00;2.70;;;10.60;99.90;;;;;;5091259;28;20538;-70
2021/05/05 06:29:33;;;;;;;3.45;2.08;;;10.70;99.90;;;;;;5102105;28;20540;-70
2021/05/05 06:32:00;;;;;;;3.85;2.40;;;10.70;99.90;;;;;;5100439;28;20201;-70
2021/05/05 06:34:26;;;;;;;6.05;2.30;;;10.70;99.90;;;;;;5103363;28;20416;-70
2021/05/05 06:36:52;;;;;;;2.95;2.30;;;10.60;99.90;;;;;;5105151;28;20653;-70
2021/05/05 06:39:19;;;;;;;2.25;2.05;;;10.60;99.90;;;;;;5102181;28;20835;-70
2021/05/05 06:41:45;;;;;;;2.97;2.35;;;10.60;99.90;;;;;;5101097;28;20567;-70
2021/05/05 06:44:11;;;;;;;3.45;2.35;;;10.50;99.90;;;;;;5098506;28;20541;-70
2021/05/05 06:46:42;;;;;;;3.75;3.10;;;10.50;99.90;;;;;;5099549;28;20201;-70
2021/05/05 06:49:09;;;;;;;6.88;2.75;;;10.50;99.90;;;;;;5102276;28;20194;-70
2021/05/05 06:51:35;;;;;;;3.17;2.83;;;10.60;99.90;;;;;;5091609;28;20289;-72
2021/05/05 06:54:01;;;;;;;3.85;2.80;;;10.80;99.90;;;;;;5100237;28;20202;-72
2021/05/05 06:56:27;;;;;;;3.35;2.00;;;10.80;99.90;;;;;;5101483;28;20198;-70
2021/05/05 06:58:53;;;;;;;2.40;2.20;;;10.90;99.90;;;;;;5102565;28;20725;-70
2021/05/05 07:01:21;;;;;;;2.78;2.47;;;10.80;99.90;;;;;;5101738;28;20192;-69
2021/05/05 07:03:48;;;;;;;2.65;2.45;;;10.80;99.90;;;;;;5100707;28;20237;-70
2021/05/05 07:06:14;;;;;;;2.63;2.10;;;10.70;99.90;;;;;;5094973;28;20201;-69
2021/05/05 07:08:40;;;;;;;2.45;2.10;;;10.70;99.90;;;;;;5092767;28;20262;-71
2021/05/05 07:11:06;;;;;;;2.42;2.15;;;10.60;99.90;;;;;;5099875;28;20375;-73
2021/05/05 07:13:33;;;;;;;2.00;1.80;;;10.60;99.90;;;;;;5093819;28;20197;-71
2021/05/05 07:15:59;;;;;;;2.55;1.75;;;10.60;99.90;;;;;;5105022;28;20201;-70
2021/05/05 07:18:26;;;;;;;4.10;2.00;;;10.60;99.90;;;;;;5096426;28;20258;-72
2021/05/05 07:20:53;;;;;;;2.50;2.30;;;10.70;99.90;;;;;;5107828;28;20204;-72
2021/05/05 07:23:19;;;;;;;3.05;2.17;;;10.60;99.90;;;;;;5093644;28;20292;-72
2021/05/05 07:25:46;;;;;;;4.43;2.20;;;10.70;99.90;;;;;;5103206;28;20233;-71
2021/05/05 07:28:12;;;;;;;2.97;2.35;;;10.90;99.90;;;;;;5093198;28;20201;-71
2021/05/05 07:30:38;;;;;;;2.90;2.50;;;11.00;99.90;;;;;;5094062;28;20259;-71
2021/05/05 07:33:05;;;;;;;3.90;2.58;;;11.00;99.90;;;;;;5102637;28;20193;-71
2021/05/05 07:35:31;;;;;;;4.03;2.72;;;11.00;99.90;;;;;;5102847;28;20256;-71
2021/05/05 07:38:24;;;;;;;2.88;2.15;;;11.00;99.90;;;;;;5096643;28;20201;-71
2021/05/05 07:44:29;;;;;;;3.08;2.17;;;11.00;99.90;;;;;;5104368;28;20215;-71
2021/05/05 07:46:47;;;;;;;2.30;2.10;;;10.90;99.90;;;;;;5113473;28;20268;-71
2021/05/05 07:49:15;;;;;;;2.50;1.83;;;10.90;99.90;;;;;;5097458;28;20258;-71
2021/05/05 07:51:43;;;;;;;2.33;2.13;;;10.90;99.90;;;;;;5095859;28;20210;-71
2021/05/05 07:54:10;;;;;;;2.00;1.83;;;10.80;99.90;;;;;;5095984;28;20225;-71
2021/05/05 07:56:37;;;;;;;2.13;1.88;;;10.80;99.90;;;;;;5108047;28;20200;-71
2021/05/05 07:59:03;;;;;;;2.50;2.00;;;10.80;99.90;;;;;;5109897;28;20193;-71
2021/05/05 08:01:31;;;;;;;5.45;1.90;;;10.80;99.90;;;;;;5109872;28;20203;-71
2021/05/05 08:03:57;;;;;;;2.00;1.88;;;10.80;99.90;;;;;;5108553;28;20212;-71
2021/05/05 08:06:24;;;;;;;2.25;2.05;;;10.80;99.90;;;;;;5109350;28;20192;-71
2021/05/05 08:08:50;;;;;;;4.20;2.10;;;10.80;99.90;;;;;;5091642;28;20204;-71
2021/05/05 08:11:17;;;;;;;2.95;1.85;;;10.70;99.90;;;;;;5090964;28;20225;-71
2021/05/05 08:13:44;;;;;;;2.92;1.90;;;10.70;99.90;;;;;;5099250;28;20196;-71
2021/05/05 08:16:10;;;;;;;3.00;2.30;;;10.70;99.90;;;;;;5110474;28;20197;-71
2021/05/05 08:18:37;;;;;;;3.35;2.15;;;10.70;99.90;;;;;;5107117;28;20216;-71
2021/05/05 08:21:05;;;;;;;3.05;2.00;;;10.70;99.90;;;;;;5091533;28;20189;-71
2021/05/05 08:23:31;;;;;;;2.35;2.15;;;10.70;99.90;;;;;;5091828;28;20258;-71
2021/05/05 08:25:57;;;;;;;2.10;1.90;;;10.70;99.90;;;;;;5093813;28;20264;-71
2021/05/05 08:28:24;;;;;;;3.00;2.35;;;10.70;99.90;;;;;;5092824;28;20186;-71
2021/05/05 08:30:52;;;;;;;2.58;2.05;;;10.70;99.90;;;;;;5091340;28;20216;-72
2021/05/05 08:33:18;;;;;;;4.35;2.67;;;10.70;99.90;;;;;;5096216;28;20266;-72
2021/05/05 08:35:44;;;;;;;2.75;1.90;;;10.70;99.90;;;;;;5093785;28;20193;-73
2021/05/05 08:38:11;;;;;;;2.60;2.40;;;10.80;99.90;;;;;;5106471;28;20188;-70
2021/05/05 08:40:37;;;;;;;3.50;2.67;;;10.80;99.90;;;;;;5107989;27;20208;-69
2021/05/05 08:43:04;;;;;;;2.97;2.22;;;10.80;99.90;;;;;;5104974;27;20201;-70
2021/05/05 08:45:32;;;;;;;2.53;2.05;;;10.90;99.90;;;;;;5096747;28;20193;-69
2021/05/05 08:48:00;;;;;;;2.33;1.83;;;10.90;99.90;;;;;;5104952;28;20201;-70
2021/05/05 08:50:28;;;;;;;3.10;2.17;;;10.90;99.90;;;;;;5103854;28;20211;-70
2021/05/05 08:52:56;;;;;;;4.10;2.95;;;11.00;99.90;;;;;;5096290;28;20218;-70
2021/05/05 08:55:24;;;;;;;2.40;2.20;;;11.10;99.90;;;;;;5096806;28;20208;-69
2021/05/05 08:57:51;;;;;;;5.18;2.35;;;11.20;99.90;;;;;;5101594;28;20533;-72
2021/05/05 09:00:20;;;;;;;3.25;2.42;;;11.20;99.90;;;;;;5101707;28;20201;-71
2021/05/05 09:02:47;;;;;;;2.05;1.70;;;11.20;99.90;;;;;;5109603;28;20541;-71
2021/05/05 09:05:16;;;;;;;3.20;2.10;;;11.20;99.90;;;;;;5096893;28;20209;-71
2021/05/05 09:07:43;;;;;;;8.57;2.78;;;11.10;99.90;;;;;;5095556;28;20227;-70
2021/05/05 09:10:11;;;;;;;3.75;2.10;;;11.20;99.90;;;;;;5106753;27;20241;-70
2021/05/05 09:12:39;;;;;;;2.22;1.42;;;11.20;99.90;;;;;;5101287;27;20710;-70
2021/05/05 09:15:10;;;;;;;2.28;1.70;;;11.10;99.90;;;;;;5111351;27;20196;-70
2021/05/05 09:17:38;;;;;;;5.25;2.33;;;11.10;99.90;;;;;;5104998;28;20221;-70
2021/05/05 09:20:16;;;;;;;8.98;2.80;;;11.20;99.90;;;;;;5103596;27;20208;-70
2021/05/05 09:22:48;;;;;;;2.75;1.73;;;11.30;99.90;;;;;;5105157;28;20188;-69
2021/05/05 09:25:16;;;;;;;2.20;1.98;;;11.40;99.90;;;;;;5099254;27;20220;-70
2021/05/05 09:27:43;;;;;;;1.90;1.75;;;11.40;99.90;;;;;;5108040;28;20219;-70
2021/05/05 09:30:19;;;;;;;2.65;1.60;;;11.50;99.90;;;;;;5090795;28;20693;-70
2021/05/05 09:32:49;;;;;;;3.13;2.30;;;11.40;99.90;;;;;;5090395;28;20182;-71
2021/05/05 09:35:16;;;;;;;3.55;1.63;;;11.50;99.90;;;;;;5105213;28;20192;-71
2021/05/05 09:37:43;;;;;;;2.47;1.60;;;11.50;99.90;;;;;;5095321;28;20541;-70
2021/05/05 09:40:11;;;;;;;2.75;1.60;;;11.40;99.90;;;;;;5090093;28;20200;-71
2021/05/05 09:42:38;;;;;;;1.58;1.48;;;11.40;99.90;;;;;;5107881;28;20193;-70
2021/05/05 09:45:07;;;;;;;4.65;2.30;;;11.40;99.90;;;;;;5096617;28;20945;-69
2021/05/05 09:47:53;;;;;;;2.10;1.45;;;11.40;99.90;;;;;;5110118;28;20545;-69
2021/05/05 09:50:29;;;;;;;2.50;1.70;;;11.30;99.90;;;;;;5101991;28;20577;-69
2021/05/05 09:53:20;;;;;;;3.17;1.90;;;11.30;99.90;;;;;;5091789;28;20652;-70
2021/05/05 09:56:04;;;;;;;2.80;1.67;;;11.20;99.90;;;;;;5092646;28;20200;-70
2021/05/05 09:58:34;;;;;;;3.58;2.10;;;11.30;99.90;;;;;;5108418;28;20228;-69
2021/05/05 10:01:15;;;;;;;3.10;2.05;;;11.40;99.90;;;;;;5099603;28;20216;-70
2021/05/05 10:03:43;;;;;;;2.63;2.00;;;11.40;99.90;;;;;;5108975;28;20193;-70
2021/05/05 10:06:25;;;;;;;4.85;2.85;;;11.40;99.90;;;;;;5094172;28;20288;-71
2021/05/05 10:08:52;;;;;;;2.70;1.80;;;11.20;99.90;;;;;;5091180;28;20197;-71
2021/05/05 10:11:21;;;;;;;2.67;2.25;;;11.20;99.90;;;;;;5106720;28;20228;-71
2021/05/05 10:13:51;;;;;;;3.35;1.40;;;11.30;99.90;;;;;;5108208;28;20820;-70
2021/05/05 10:16:17;;;;;;;4.60;2.63;;;11.30;99.90;;;;;;5097817;28;20205;-70
2021/05/05 10:18:45;;;;;;;4.03;2.40;;;11.30;99.90;;;;;;5090457;28;20209;-70
2021/05/05 10:21:14;;;;;;;2.95;1.95;;;11.30;99.90;;;;;;5091448;28;20198;-71
2021/05/05 10:23:42;;;;;;;2.90;1.90;;;11.30;99.90;;;;;;5108053;28;20193;-71
2021/05/05 10:26:08;;;;;;;3.97;1.75;;;11.40;99.90;;;;;;5110005;28;20674;-71
2021/05/05 10:28:35;;;;;;;9.18;1.80;;;11.40;99.90;;;;;;5090352;28;20546;-70
2021/05/05 10:31:01;;;;;;;2.65;1.88;;;11.30;99.90;;;;;;5098436;28;20244;-71
2021/05/05 10:33:31;;;;;;;2.85;1.60;;;11.40;99.90;;;;;;5095950;28;20205;-70
2021/05/05 10:36:33;;;;;;;1.63;1.48;;;11.40;99.90;;;;;;5105000;28;20541;-69
2021/05/05 10:39:01;;;;;;;2.05;1.60;;;11.40;99.90;;;;;;5102399;28;20680;-70
2021/05/05 10:41:28;;;;;;;1.92;1.40;;;11.40;99.90;;;;;;5103431;28;20208;-70
2021/05/05 10:43:56;;;;;;;1.95;1.23;;;11.40;99.90;;;;;;5097273;28;20211;-70
2021/05/05 10:46:30;;;;;;;2.90;1.45;;;11.40;99.90;;;;;;5113803;28;20232;-70
2021/05/05 10:49:08;;;;;;;5.80;1.70;;;11.40;99.90;;;;;;5113848;28;20321;-70
2021/05/05 10:52:00;;;;;;;1.50;1.40;;;11.30;99.90;;;;;;5108534;28;20221;-69
2021/05/05 10:54:50;;;;;;;1.90;1.52;;;11.40;99.90;;;;;;5104361;27;20196;-70
2021/05/05 10:57:17;;;;;;;2.00;1.35;;;11.40;99.90;;;;;;5106775;28;20262;-70
2021/05/05 11:00:07;;;;;;;2.17;1.60;;;11.50;99.90;;;;;;5104801;28;20197;-70
2021/05/05 11:02:47;;;;;;;2.13;1.40;;;11.50;99.90;;;;;;5101289;28;20204;-71
2021/05/05 11:05:15;;;;;;;2.90;1.40;;;11.40;99.90;;;;;;5094848;28;20197;-70
2021/05/05 11:07:51;;;;;;;1.48;1.38;;;11.50;99.90;;;;;;5092675;28;20212;-69
2021/05/05 11:10:46;;;;;;;2.08;1.30;;;11.50;99.90;;;;;;5097090;28;20223;-71
2021/05/05 11:13:39;;;;;;;2.17;1.20;;;11.60;99.90;;;;;;5102361;28;20194;-71
2021/05/05 11:16:06;;;;;;;3.00;1.45;;;11.60;99.90;;;;;;5103431;28;20201;-72
2021/05/05 11:18:46;;;;;;;2.10;1.45;;;11.60;99.90;;;;;;5105189;28;20194;-71
2021/05/05 11:21:41;;;;;;;3.35;1.55;;;11.60;99.90;;;;;;5092946;28;20204;-71
2021/05/05 11:24:30;;;;;;;1.95;1.52;;;11.60;99.90;;;;;;5111140;28;20240;-71
2021/05/05 11:26:59;;;;;;;3.25;1.35;;;11.70;99.90;;;;;;5111563;28;20212;-71
2021/05/05 11:29:33;;;;;;;3.35;1.67;;;11.70;99.90;;;;;;5092776;28;20634;-70
2021/05/05 11:32:02;;;;;;;2.92;2.20;;;11.70;99.90;;;;;;5097717;28;20252;-70
2021/05/05 11:34:31;;;;;;;2.60;1.75;;;11.70;99.90;;;;;;5106176;28;20629;-70
2021/05/05 11:37:09;;;;;;;3.85;1.70;;;11.80;99.90;;;;;;5092647;28;20209;-70
2021/05/05 11:39:37;;;;;;;1.85;1.55;;;11.80;99.90;;;;;;5092163;28;20653;-71
2021/05/05 11:42:07;;;;;;;3.33;2.20;;;11.80;99.90;;;;;;5102830;28;20194;-70
2021/05/05 11:44:35;;;;;;;2.55;1.58;;;11.70;99.90;;;;;;5091391;28;20197;-71
2021/05/05 11:47:02;;;;;;;3.15;1.73;;;11.80;99.90;;;;;;5103416;28;20211;-71
2021/05/05 11:49:36;;;;;;;2.72;1.30;;;11.80;99.90;;;;;;5100810;28;20193;-71
2021/05/05 11:52:21;;;;;;;5.68;1.88;;;11.80;99.90;;;;;;5111817;28;20200;-72
2021/05/05 11:54:48;;;;;;;2.85;1.30;;;11.70;99.90;;;;;;5098088;28;20197;-70
2021/05/05 11:57:18;;;;;;;3.13;1.58;;;11.80;99.90;;;;;;5098785;28;20193;-71
2021/05/05 11:59:45;;;;;;;2.10;1.38;;;11.80;99.90;;;;;;5105691;28;20533;-71
2021/05/05 12:02:12;;;;;;;1.77;1.50;;;11.70;99.90;;;;;;5091250;28;20198;-71
2021/05/05 12:04:39;;;;;;;2.35;1.30;;;11.70;99.90;;;;;;5095475;28;20262;-70
2021/05/05 12:07:07;;;;;;;4.07;2.00;;;11.70;99.90;;;;;;5106603;28;20288;-71
2021/05/05 12:09:35;;;;;;;2.45;1.50;;;11.70;99.90;;;;;;5100624;28;20196;-70
2021/05/05 12:12:20;;;;;;;2.35;1.30;;;11.80;99.90;;;;;;5098894;27;20228;-71
2021/05/05 12:14:49;;;;;;;6.00;1.50;;;11.80;99.90;;;;;;5104028;28;20401;-71
2021/05/05 12:17:26;;;;;;;2.90;1.70;;;11.80;99.90;;;;;;5091450;28;20227;-71
2021/05/05 12:20:11;;;;;;;3.53;1.73;;;11.80;99.90;;;;;;5101110;28;20193;-71
2021/05/05 12:22:50;;;;;;;8.02;1.73;;;11.80;99.90;;;;;;5090354;28;20228;-71
2021/05/05 12:25:18;;;;;;;1.65;1.25;;;11.80;99.90;;;;;;5106941;28;20232;-71
2021/05/05 12:28:10;;;;;;;4.35;1.52;;;11.80;99.90;;;;;;5100459;28;20197;-71
2021/05/05 12:30:48;;;;;;;3.78;1.60;;;11.90;99.90;;;;;;5092184;28;20209;-71
2021/05/05 12:33:17;;;;;;;2.05;1.20;;;11.90;99.90;;;;;;5094405;28;20181;-71
2021/05/05 12:35:44;;;;;;;3.95;1.75;;;12.00;99.90;;;;;;5110602;28;20193;-71
2021/05/05 12:38:13;;;;;;;5.82;1.05;;;12.00;99.90;;;;;;5097308;28;20202;-72
2021/05/05 12:40:40;;;;;;;1.20;1.00;;;12.00;99.90;;;;;;5111479;28;20541;-71
2021/05/05 12:43:17;;;;;;;2.75;1.30;;;12.00;99.90;;;;;;5101937;28;20201;-72
2021/05/05 12:45:44;;;;;;;2.75;1.10;;;12.10;99.90;;;;;;5110177;28;20215;-71
2021/05/05 12:48:10;;;;;;;2.55;1.23;;;12.00;99.90;;;;;;5105260;28;20197;-72
2021/05/05 12:50:39;;;;;;;3.55;1.13;;;12.00;99.90;;;;;;5101358;28;20224;-70
2021/05/05 12:53:05;;;;;;;2.80;1.30;;;12.00;99.90;;;;;;5108390;28;20742;-71
2021/05/05 12:55:34;;;;;;;1.90;1.30;;;11.90;99.90;;;;;;5090090;28;20197;-71
2021/05/05 12:58:03;;;;;;;4.20;1.30;;;12.10;99.90;;;;;;5101280;28;20246;-70